sensor_id;sensor_type;location;lat;lon;timestamp;P1;durP1;ratioP1;P2;durP2;ratioP2
75358;SDS011;64046;51.978;5.934;2023-08-31T00:01:15;6.65;;;1.73;;
75358;SDS011;64046;51.978;5.934;2023-08-31T00:03:48;3.38;;;1.92;;
75358;SDS011;64046;51.978;5.934;2023-08-31T00:06:20;5.80;;;2.30;;
75358;SDS011;64046;51.978;5.934;2023-08-31T00:08:51;4.47;;;2.33;;
75358;SDS011;64046;51.978;5.934;2023-08-31T00:11:20;2.70;;;1.80;;
75358;SDS011;64046;51.978;5.934;2023-08-31T00:13:50;2.53;;;1.58;;
75358;SDS011;64046;51.978;5.934;2023-08-31T00:16:23;5.50;;;2.10;;
75358;SDS011;64046;51.978;5.934;2023-08-31T00:18:58;4.13;;;2.15;;
75358;SDS011;64046;51.978;5.934;2023-08-31T00:21:28;3.08;;;1.60;;
75358;SDS011;64046;51.978;5.934;2023-08-31T00:24:02;3.17;;;1.92;;
75358;SDS011;64046;51.978;5.934;2023-08-31T00:26:35;3.47;;;1.70;;
75358;SDS011;64046;51.978;5.934;2023-08-31T00:29:11;3.53;;;2.00;;
75358;SDS011;64046;51.978;5.934;2023-08-31T00:31:42;2.80;;;1.95;;
75358;SDS011;64046;51.978;5.934;2023-08-31T00:34:17;5.97;;;1.80;;
75358;SDS011;64046;51.978;5.934;2023-08-31T00:36:47;5.00;;;1.88;;
75358;SDS011;64046;51.978;5.934;2023-08-31T00:39:20;2.75;;;1.92;;
75358;SDS011;64046;51.978;5.934;2023-08-31T00:41:49;2.55;;;1.70;;
75358;SDS011;64046;51.978;5.934;2023-08-31T00:44:21;3.33;;;1.70;;
75358;SDS011;64046;51.978;5.934;2023-08-31T00:46:56;2.58;;;1.60;;
75358;SDS011;64046;51.978;5.934;2023-08-31T00:49:33;3.22;;;1.88;;
75358;SDS011;64046;51.978;5.934;2023-08-31T00:52:05;4.55;;;2.78;;
75358;SDS011;64046;51.978;5.934;2023-08-31T00:54:35;5.13;;;2.70;;
75358;SDS011;64046;51.978;5.934;2023-08-31T00:57:08;6.43;;;2.70;;
75358;SDS011;64046;51.978;5.934;2023-08-31T00:59:42;6.97;;;2.60;;
75358;SDS011;64046;51.978;5.934;2023-08-31T01:02:16;8.38;;;2.67;;
75358;SDS011;64046;51.978;5.934;2023-08-31T01:04:56;5.05;;;2.78;;
75358;SDS011;64046;51.978;5.934;2023-08-31T01:07:31;4.25;;;2.65;;
75358;SDS011;64046;51.978;5.934;2023-08-31T01:10:12;4.30;;;2.95;;
75358;SDS011;64046;51.978;5.934;2023-08-31T01:12:49;4.65;;;3.10;;
75358;SDS011;64046;51.978;5.934;2023-08-31T01:15:31;6.15;;;3.40;;
75358;SDS011;64046;51.978;5.934;2023-08-31T01:18:03;7.47;;;3.80;;
75358;SDS011;64046;51.978;5.934;2023-08-31T01:20:42;8.80;;;4.28;;
75358;SDS011;64046;51.978;5.934;2023-08-31T01:23:20;6.28;;;4.38;;
75358;SDS011;64046;51.978;5.934;2023-08-31T01:25:59;7.53;;;3.83;;
75358;SDS011;64046;51.978;5.934;2023-08-31T01:28:28;8.20;;;4.30;;
75358;SDS011;64046;51.978;5.934;2023-08-31T01:31:03;6.07;;;3.88;;
75358;SDS011;64046;51.978;5.934;2023-08-31T01:33:35;8.10;;;5.00;;
75358;SDS011;64046;51.978;5.934;2023-08-31T01:36:07;13.60;;;5.75;;
75358;SDS011;64046;51.978;5.934;2023-08-31T01:38:41;9.77;;;5.00;;
75358;SDS011;64046;51.978;5.934;2023-08-31T01:41:19;8.73;;;5.72;;
75358;SDS011;64046;51.978;5.934;2023-08-31T01:43:52;8.35;;;5.93;;
75358;SDS011;64046;51.978;5.934;2023-08-31T01:46:26;8.15;;;5.90;;
75358;SDS011;64046;51.978;5.934;2023-08-31T01:48:56;9.13;;;5.85;;
75358;SDS011;64046;51.978;5.934;2023-08-31T01:51:28;10.05;;;5.43;;
75358;SDS011;64046;51.978;5.934;2023-08-31T01:53:59;9.48;;;6.18;;
75358;SDS011;64046;51.978;5.934;2023-08-31T01:56:34;7.45;;;5.93;;
75358;SDS011;64046;51.978;5.934;2023-08-31T01:59:10;8.10;;;4.75;;
75358;SDS011;64046;51.978;5.934;2023-08-31T02:01:41;10.93;;;6.00;;
75358;SDS011;64046;51.978;5.934;2023-08-31T02:04:11;7.78;;;5.25;;
75358;SDS011;64046;51.978;5.934;2023-08-31T02:06:41;10.45;;;7.03;;
75358;SDS011;64046;51.978;5.934;2023-08-31T02:09:11;9.73;;;6.82;;
75358;SDS011;64046;51.978;5.934;2023-08-31T02:11:44;8.70;;;5.63;;
75358;SDS011;64046;51.978;5.934;2023-08-31T02:14:13;10.77;;;6.65;;
75358;SDS011;64046;51.978;5.934;2023-08-31T02:16:50;10.45;;;6.30;;
75358;SDS011;64046;51.978;5.934;2023-08-31T02:19:19;10.10;;;6.53;;
75358;SDS011;64046;51.978;5.934;2023-08-31T02:21:51;9.77;;;6.25;;
75358;SDS011;64046;51.978;5.934;2023-08-31T02:24:21;7.95;;;5.75;;
75358;SDS011;64046;51.978;5.934;2023-08-31T02:26:55;7.85;;;5.72;;
75358;SDS011;64046;51.978;5.934;2023-08-31T02:29:26;8.25;;;5.38;;
75358;SDS011;64046;51.978;5.934;2023-08-31T02:31:56;9.02;;;6.68;;
75358;SDS011;64046;51.978;5.934;2023-08-31T02:34:27;8.20;;;5.70;;
75358;SDS011;64046;51.978;5.934;2023-08-31T02:36:59;7.55;;;5.90;;
75358;SDS011;64046;51.978;5.934;2023-08-31T02:39:28;9.95;;;6.57;;
75358;SDS011;64046;51.978;5.934;2023-08-31T02:42:04;8.75;;;6.60;;
75358;SDS011;64046;51.978;5.934;2023-08-31T02:44:34;13.30;;;7.10;;
75358;SDS011;64046;51.978;5.934;2023-08-31T02:47:04;7.88;;;6.13;;
75358;SDS011;64046;51.978;5.934;2023-08-31T02:49:38;9.13;;;6.00;;
75358;SDS011;64046;51.978;5.934;2023-08-31T02:52:08;11.55;;;7.40;;
75358;SDS011;64046;51.978;5.934;2023-08-31T02:54:37;11.52;;;7.30;;
75358;SDS011;64046;51.978;5.934;2023-08-31T02:57:10;11.05;;;6.28;;
75358;SDS011;64046;51.978;5.934;2023-08-31T02:59:41;9.02;;;6.07;;
75358;SDS011;64046;51.978;5.934;2023-08-31T03:02:15;12.15;;;8.35;;
75358;SDS011;64046;51.978;5.934;2023-08-31T03:04:44;11.63;;;8.18;;
75358;SDS011;64046;51.978;5.934;2023-08-31T03:07:24;16.17;;;10.13;;
75358;SDS011;64046;51.978;5.934;2023-08-31T03:09:53;10.40;;;7.60;;
75358;SDS011;64046;51.978;5.934;2023-08-31T03:12:31;10.55;;;7.65;;
75358;SDS011;64046;51.978;5.934;2023-08-31T03:15:03;12.07;;;8.10;;
75358;SDS011;64046;51.978;5.934;2023-08-31T03:17:35;13.68;;;8.05;;
75358;SDS011;64046;51.978;5.934;2023-08-31T03:20:05;15.95;;;9.88;;
75358;SDS011;64046;51.978;5.934;2023-08-31T03:22:37;16.17;;;9.48;;
75358;SDS011;64046;51.978;5.934;2023-08-31T03:25:13;12.35;;;8.48;;
75358;SDS011;64046;51.978;5.934;2023-08-31T03:27:50;12.95;;;8.88;;
75358;SDS011;64046;51.978;5.934;2023-08-31T03:30:22;11.80;;;9.20;;
75358;SDS011;64046;51.978;5.934;2023-08-31T03:32:51;12.32;;;7.88;;
75358;SDS011;64046;51.978;5.934;2023-08-31T03:35:24;11.98;;;7.78;;
75358;SDS011;64046;51.978;5.934;2023-08-31T03:37:58;11.40;;;7.53;;
75358;SDS011;64046;51.978;5.934;2023-08-31T03:40:34;9.38;;;7.20;;
75358;SDS011;64046;51.978;5.934;2023-08-31T03:43:09;13.27;;;8.15;;
75358;SDS011;64046;51.978;5.934;2023-08-31T03:45:40;12.18;;;8.32;;
75358;SDS011;64046;51.978;5.934;2023-08-31T03:48:10;11.45;;;8.43;;
75358;SDS011;64046;51.978;5.934;2023-08-31T03:50:43;11.68;;;9.40;;
75358;SDS011;64046;51.978;5.934;2023-08-31T03:53:12;11.85;;;8.05;;
75358;SDS011;64046;51.978;5.934;2023-08-31T03:55:43;12.57;;;7.57;;
75358;SDS011;64046;51.978;5.934;2023-08-31T03:58:17;11.40;;;9.10;;
75358;SDS011;64046;51.978;5.934;2023-08-31T04:00:50;12.70;;;8.45;;
75358;SDS011;64046;51.978;5.934;2023-08-31T04:03:22;11.15;;;7.63;;
75358;SDS011;64046;51.978;5.934;2023-08-31T04:05:57;13.60;;;8.20;;
75358;SDS011;64046;51.978;5.934;2023-08-31T04:08:34;14.50;;;9.95;;
75358;SDS011;64046;51.978;5.934;2023-08-31T04:11:06;9.05;;;7.80;;
75358;SDS011;64046;51.978;5.934;2023-08-31T04:13:40;13.43;;;9.40;;
75358;SDS011;64046;51.978;5.934;2023-08-31T04:16:11;10.60;;;7.80;;
75358;SDS011;64046;51.978;5.934;2023-08-31T04:18:42;15.35;;;7.97;;
75358;SDS011;64046;51.978;5.934;2023-08-31T04:21:17;10.85;;;7.32;;
75358;SDS011;64046;51.978;5.934;2023-08-31T04:23:49;9.13;;;6.88;;
75358;SDS011;64046;51.978;5.934;2023-08-31T04:26:20;10.05;;;7.03;;
75358;SDS011;64046;51.978;5.934;2023-08-31T04:28:53;8.30;;;5.93;;
75358;SDS011;64046;51.978;5.934;2023-08-31T04:31:22;11.48;;;7.45;;
75358;SDS011;64046;51.978;5.934;2023-08-31T04:33:52;10.10;;;6.78;;
75358;SDS011;64046;51.978;5.934;2023-08-31T04:36:22;12.00;;;8.02;;
75358;SDS011;64046;51.978;5.934;2023-08-31T04:38:52;9.68;;;6.82;;
75358;SDS011;64046;51.978;5.934;2023-08-31T04:41:22;10.90;;;7.05;;
75358;SDS011;64046;51.978;5.934;2023-08-31T04:43:56;13.93;;;8.15;;
75358;SDS011;64046;51.978;5.934;2023-08-31T04:46:25;15.25;;;8.05;;
75358;SDS011;64046;51.978;5.934;2023-08-31T04:48:55;8.20;;;5.90;;
75358;SDS011;64046;51.978;5.934;2023-08-31T04:51:28;9.95;;;6.63;;
75358;SDS011;64046;51.978;5.934;2023-08-31T04:54:05;11.27;;;6.68;;
75358;SDS011;64046;51.978;5.934;2023-08-31T04:56:36;9.73;;;6.75;;
75358;SDS011;64046;51.978;5.934;2023-08-31T04:59:10;9.57;;;6.38;;
75358;SDS011;64046;51.978;5.934;2023-08-31T05:01:41;10.27;;;7.28;;
75358;SDS011;64046;51.978;5.934;2023-08-31T05:04:11;7.47;;;5.75;;
75358;SDS011;64046;51.978;5.934;2023-08-31T05:06:42;10.60;;;5.90;;
75358;SDS011;64046;51.978;5.934;2023-08-31T05:09:16;13.63;;;7.82;;
75358;SDS011;64046;51.978;5.934;2023-08-31T05:11:51;10.80;;;6.55;;
75358;SDS011;64046;51.978;5.934;2023-08-31T05:14:25;12.55;;;6.50;;
75358;SDS011;64046;51.978;5.934;2023-08-31T05:16:55;10.23;;;6.65;;
75358;SDS011;64046;51.978;5.934;2023-08-31T05:19:25;9.60;;;7.22;;
75358;SDS011;64046;51.978;5.934;2023-08-31T05:21:55;11.55;;;7.13;;
75358;SDS011;64046;51.978;5.934;2023-08-31T05:24:26;14.32;;;8.20;;
75358;SDS011;64046;51.978;5.934;2023-08-31T05:27:05;12.02;;;6.88;;
75358;SDS011;64046;51.978;5.934;2023-08-31T05:29:39;13.00;;;7.30;;
75358;SDS011;64046;51.978;5.934;2023-08-31T05:32:10;15.77;;;10.07;;
75358;SDS011;64046;51.978;5.934;2023-08-31T05:34:39;14.13;;;8.57;;
75358;SDS011;64046;51.978;5.934;2023-08-31T05:37:09;13.68;;;9.57;;
75358;SDS011;64046;51.978;5.934;2023-08-31T05:39:45;11.95;;;8.38;;
75358;SDS011;64046;51.978;5.934;2023-08-31T05:42:16;10.93;;;8.80;;
75358;SDS011;64046;51.978;5.934;2023-08-31T05:44:53;14.23;;;10.35;;
75358;SDS011;64046;51.978;5.934;2023-08-31T05:47:24;16.27;;;10.07;;
75358;SDS011;64046;51.978;5.934;2023-08-31T05:49:54;19.10;;;11.63;;
75358;SDS011;64046;51.978;5.934;2023-08-31T05:52:25;12.65;;;8.45;;
75358;SDS011;64046;51.978;5.934;2023-08-31T05:54:58;14.93;;;8.80;;
75358;SDS011;64046;51.978;5.934;2023-08-31T05:57:27;19.25;;;10.35;;
75358;SDS011;64046;51.978;5.934;2023-08-31T06:00:00;13.20;;;8.60;;
75358;SDS011;64046;51.978;5.934;2023-08-31T06:02:38;12.13;;;8.40;;
75358;SDS011;64046;51.978;5.934;2023-08-31T06:05:12;14.82;;;9.50;;
75358;SDS011;64046;51.978;5.934;2023-08-31T06:07:42;18.05;;;10.52;;
75358;SDS011;64046;51.978;5.934;2023-08-31T06:10:12;12.70;;;9.50;;
75358;SDS011;64046;51.978;5.934;2023-08-31T06:12:42;10.85;;;8.13;;
75358;SDS011;64046;51.978;5.934;2023-08-31T06:15:14;11.25;;;8.55;;
75358;SDS011;64046;51.978;5.934;2023-08-31T06:17:44;12.35;;;9.60;;
75358;SDS011;64046;51.978;5.934;2023-08-31T06:20:14;12.23;;;9.02;;
75358;SDS011;64046;51.978;5.934;2023-08-31T06:22:47;13.95;;;9.75;;
75358;SDS011;64046;51.978;5.934;2023-08-31T06:25:19;12.48;;;8.93;;
75358;SDS011;64046;51.978;5.934;2023-08-31T06:27:52;14.82;;;9.60;;
75358;SDS011;64046;51.978;5.934;2023-08-31T06:30:25;11.18;;;8.50;;
75358;SDS011;64046;51.978;5.934;2023-08-31T06:32:54;12.38;;;8.40;;
75358;SDS011;64046;51.978;5.934;2023-08-31T06:35:25;16.75;;;8.23;;
75358;SDS011;64046;51.978;5.934;2023-08-31T06:37:59;14.90;;;9.02;;
75358;SDS011;64046;51.978;5.934;2023-08-31T06:40:30;13.73;;;9.15;;
75358;SDS011;64046;51.978;5.934;2023-08-31T06:43:01;10.52;;;7.20;;
75358;SDS011;64046;51.978;5.934;2023-08-31T06:45:38;14.02;;;8.82;;
75358;SDS011;64046;51.978;5.934;2023-08-31T06:48:10;15.02;;;9.65;;
75358;SDS011;64046;51.978;5.934;2023-08-31T06:50:42;11.02;;;7.53;;
75358;SDS011;64046;51.978;5.934;2023-08-31T06:53:13;15.80;;;8.38;;
75358;SDS011;64046;51.978;5.934;2023-08-31T06:55:44;14.80;;;9.80;;
75358;SDS011;64046;51.978;5.934;2023-08-31T06:58:14;14.07;;;8.65;;
75358;SDS011;64046;51.978;5.934;2023-08-31T07:00:46;11.80;;;8.18;;
75358;SDS011;64046;51.978;5.934;2023-08-31T07:03:16;11.00;;;8.82;;
75358;SDS011;64046;51.978;5.934;2023-08-31T07:05:47;15.00;;;9.63;;
75358;SDS011;64046;51.978;5.934;2023-08-31T07:08:17;12.57;;;7.72;;
75358;SDS011;64046;51.978;5.934;2023-08-31T07:10:46;10.20;;;8.00;;
75358;SDS011;64046;51.978;5.934;2023-08-31T07:13:18;16.23;;;8.60;;
75358;SDS011;64046;51.978;5.934;2023-08-31T07:15:50;16.38;;;9.45;;
75358;SDS011;64046;51.978;5.934;2023-08-31T07:18:21;12.48;;;8.30;;
75358;SDS011;64046;51.978;5.934;2023-08-31T07:20:50;14.02;;;9.63;;
75358;SDS011;64046;51.978;5.934;2023-08-31T07:23:20;12.93;;;8.95;;
75358;SDS011;64046;51.978;5.934;2023-08-31T07:25:50;13.95;;;8.43;;
75358;SDS011;64046;51.978;5.934;2023-08-31T07:28:20;14.10;;;9.07;;
75358;SDS011;64046;51.978;5.934;2023-08-31T07:31:02;13.10;;;9.10;;
75358;SDS011;64046;51.978;5.934;2023-08-31T07:33:32;12.38;;;8.50;;
75358;SDS011;64046;51.978;5.934;2023-08-31T07:36:05;15.68;;;9.52;;
75358;SDS011;64046;51.978;5.934;2023-08-31T07:38:34;11.93;;;7.22;;
75358;SDS011;64046;51.978;5.934;2023-08-31T07:41:04;13.45;;;8.18;;
75358;SDS011;64046;51.978;5.934;2023-08-31T07:43:34;10.93;;;7.35;;
75358;SDS011;64046;51.978;5.934;2023-08-31T07:46:08;11.38;;;7.90;;
75358;SDS011;64046;51.978;5.934;2023-08-31T07:48:37;11.68;;;6.32;;
75358;SDS011;64046;51.978;5.934;2023-08-31T07:51:08;14.73;;;7.70;;
75358;SDS011;64046;51.978;5.934;2023-08-31T07:53:38;13.55;;;7.32;;
75358;SDS011;64046;51.978;5.934;2023-08-31T07:56:09;14.38;;;8.13;;
75358;SDS011;64046;51.978;5.934;2023-08-31T07:58:44;12.02;;;6.30;;
75358;SDS011;64046;51.978;5.934;2023-08-31T08:01:17;13.05;;;6.20;;
75358;SDS011;64046;51.978;5.934;2023-08-31T08:03:48;9.48;;;6.70;;
75358;SDS011;64046;51.978;5.934;2023-08-31T08:06:17;13.30;;;7.30;;
75358;SDS011;64046;51.978;5.934;2023-08-31T08:08:47;14.68;;;7.40;;
75358;SDS011;64046;51.978;5.934;2023-08-31T08:11:17;12.57;;;7.22;;
75358;SDS011;64046;51.978;5.934;2023-08-31T08:13:47;15.18;;;7.30;;
75358;SDS011;64046;51.978;5.934;2023-08-31T08:16:20;13.80;;;6.32;;
75358;SDS011;64046;51.978;5.934;2023-08-31T08:18:50;13.18;;;6.60;;
75358;SDS011;64046;51.978;5.934;2023-08-31T08:21:19;12.23;;;6.93;;
75358;SDS011;64046;51.978;5.934;2023-08-31T08:23:49;11.13;;;6.90;;
75358;SDS011;64046;51.978;5.934;2023-08-31T08:26:20;11.63;;;6.45;;
75358;SDS011;64046;51.978;5.934;2023-08-31T08:28:49;12.35;;;8.85;;
75358;SDS011;64046;51.978;5.934;2023-08-31T08:31:22;9.90;;;7.10;;
75358;SDS011;64046;51.978;5.934;2023-08-31T08:33:51;10.77;;;7.85;;
75358;SDS011;64046;51.978;5.934;2023-08-31T08:36:21;10.45;;;6.97;;
75358;SDS011;64046;51.978;5.934;2023-08-31T08:38:52;7.35;;;6.20;;
75358;SDS011;64046;51.978;5.934;2023-08-31T08:41:23;12.77;;;6.90;;
75358;SDS011;64046;51.978;5.934;2023-08-31T08:43:53;13.23;;;8.13;;
75358;SDS011;64046;51.978;5.934;2023-08-31T08:46:27;10.60;;;6.32;;
75358;SDS011;64046;51.978;5.934;2023-08-31T08:48:59;10.70;;;7.20;;
75358;SDS011;64046;51.978;5.934;2023-08-31T08:51:29;14.18;;;7.63;;
75358;SDS011;64046;51.978;5.934;2023-08-31T08:54:02;11.10;;;6.80;;
75358;SDS011;64046;51.978;5.934;2023-08-31T08:56:32;11.23;;;6.60;;
75358;SDS011;64046;51.978;5.934;2023-08-31T08:59:03;11.57;;;6.75;;
75358;SDS011;64046;51.978;5.934;2023-08-31T09:01:38;10.85;;;6.80;;
75358;SDS011;64046;51.978;5.934;2023-08-31T09:04:09;11.98;;;7.28;;
75358;SDS011;64046;51.978;5.934;2023-08-31T09:06:39;12.75;;;6.57;;
75358;SDS011;64046;51.978;5.934;2023-08-31T09:09:12;9.90;;;5.95;;
75358;SDS011;64046;51.978;5.934;2023-08-31T09:11:48;7.82;;;5.47;;
75358;SDS011;64046;51.978;5.934;2023-08-31T09:14:19;11.23;;;7.03;;
75358;SDS011;64046;51.978;5.934;2023-08-31T09:16:52;12.15;;;6.47;;
75358;SDS011;64046;51.978;5.934;2023-08-31T09:19:22;9.68;;;5.35;;
75358;SDS011;64046;51.978;5.934;2023-08-31T09:21:55;12.23;;;6.75;;
75358;SDS011;64046;51.978;5.934;2023-08-31T09:24:26;12.85;;;5.80;;
75358;SDS011;64046;51.978;5.934;2023-08-31T09:26:59;9.70;;;6.38;;
75358;SDS011;64046;51.978;5.934;2023-08-31T09:29:32;7.65;;;5.50;;
75358;SDS011;64046;51.978;5.934;2023-08-31T09:32:07;9.45;;;4.72;;
75358;SDS011;64046;51.978;5.934;2023-08-31T09:34:36;10.45;;;4.95;;
75358;SDS011;64046;51.978;5.934;2023-08-31T09:37:09;9.43;;;5.05;;
75358;SDS011;64046;51.978;5.934;2023-08-31T09:39:39;7.75;;;4.53;;
75358;SDS011;64046;51.978;5.934;2023-08-31T09:42:11;7.13;;;5.28;;
75358;SDS011;64046;51.978;5.934;2023-08-31T09:44:43;11.13;;;5.15;;
75358;SDS011;64046;51.978;5.934;2023-08-31T09:47:20;7.47;;;3.90;;
75358;SDS011;64046;51.978;5.934;2023-08-31T09:49:51;6.43;;;3.28;;
75358;SDS011;64046;51.978;5.934;2023-08-31T09:52:26;7.18;;;3.70;;
75358;SDS011;64046;51.978;5.934;2023-08-31T09:54:57;7.57;;;3.92;;
75358;SDS011;64046;51.978;5.934;2023-08-31T09:57:32;7.05;;;3.13;;
75358;SDS011;64046;51.978;5.934;2023-08-31T10:00:04;5.30;;;3.08;;
75358;SDS011;64046;51.978;5.934;2023-08-31T10:02:45;5.85;;;3.42;;
75358;SDS011;64046;51.978;5.934;2023-08-31T10:05:16;8.70;;;3.58;;
75358;SDS011;64046;51.978;5.934;2023-08-31T10:07:51;7.50;;;4.03;;
75358;SDS011;64046;51.978;5.934;2023-08-31T10:10:21;6.70;;;3.38;;
75358;SDS011;64046;51.978;5.934;2023-08-31T10:12:51;4.88;;;2.90;;
75358;SDS011;64046;51.978;5.934;2023-08-31T10:15:24;7.20;;;3.25;;
75358;SDS011;64046;51.978;5.934;2023-08-31T10:18:08;6.75;;;3.33;;
75358;SDS011;64046;51.978;5.934;2023-08-31T10:20:41;6.57;;;3.10;;
75358;SDS011;64046;51.978;5.934;2023-08-31T10:23:12;5.25;;;3.10;;
75358;SDS011;64046;51.978;5.934;2023-08-31T10:28:30;6.75;;;3.60;;
75358;SDS011;64046;51.978;5.934;2023-08-31T10:31:14;9.43;;;3.67;;
75358;SDS011;64046;51.978;5.934;2023-08-31T10:33:54;7.38;;;3.63;;
75358;SDS011;64046;51.978;5.934;2023-08-31T10:36:34;10.05;;;3.28;;
75358;SDS011;64046;51.978;5.934;2023-08-31T10:39:15;8.95;;;3.40;;
75358;SDS011;64046;51.978;5.934;2023-08-31T10:41:54;5.40;;;3.30;;
75358;SDS011;64046;51.978;5.934;2023-08-31T10:44:25;5.75;;;2.90;;
75358;SDS011;64046;51.978;5.934;2023-08-31T10:46:55;6.85;;;3.03;;
75358;SDS011;64046;51.978;5.934;2023-08-31T10:49:31;8.13;;;2.50;;
75358;SDS011;64046;51.978;5.934;2023-08-31T10:52:17;7.35;;;2.28;;
75358;SDS011;64046;51.978;5.934;2023-08-31T10:54:47;5.28;;;2.40;;
75358;SDS011;64046;51.978;5.934;2023-08-31T10:57:29;3.72;;;1.88;;
75358;SDS011;64046;51.978;5.934;2023-08-31T10:59:59;4.95;;;2.00;;
75358;SDS011;64046;51.978;5.934;2023-08-31T11:02:30;5.05;;;1.70;;
75358;SDS011;64046;51.978;5.934;2023-08-31T11:05:10;4.07;;;2.00;;
75358;SDS011;64046;51.978;5.934;2023-08-31T11:07:41;4.30;;;1.80;;
75358;SDS011;64046;51.978;5.934;2023-08-31T11:10:16;2.92;;;1.60;;
75358;SDS011;64046;51.978;5.934;2023-08-31T11:12:48;2.97;;;1.50;;
75358;SDS011;64046;51.978;5.934;2023-08-31T11:15:21;3.63;;;1.63;;
75358;SDS011;64046;51.978;5.934;2023-08-31T11:17:57;3.95;;;1.48;;
75358;SDS011;64046;51.978;5.934;2023-08-31T11:20:30;3.22;;;1.55;;
75358;SDS011;64046;51.978;5.934;2023-08-31T11:23:00;2.97;;;1.70;;
75358;SDS011;64046;51.978;5.934;2023-08-31T11:25:31;8.23;;;1.77;;
75358;SDS011;64046;51.978;5.934;2023-08-31T11:28:03;2.35;;;1.58;;
75358;SDS011;64046;51.978;5.934;2023-08-31T11:30:37;5.00;;;1.83;;
75358;SDS011;64046;51.978;5.934;2023-08-31T11:33:09;5.45;;;2.35;;
75358;SDS011;64046;51.978;5.934;2023-08-31T11:35:43;5.13;;;2.17;;
75358;SDS011;64046;51.978;5.934;2023-08-31T11:38:13;3.42;;;1.77;;
75358;SDS011;64046;51.978;5.934;2023-08-31T11:40:43;5.65;;;2.03;;
75358;SDS011;64046;51.978;5.934;2023-08-31T11:43:14;5.13;;;2.03;;
75358;SDS011;64046;51.978;5.934;2023-08-31T11:45:46;3.45;;;1.48;;
75358;SDS011;64046;51.978;5.934;2023-08-31T11:48:16;2.67;;;1.30;;
75358;SDS011;64046;51.978;5.934;2023-08-31T11:50:49;3.70;;;1.20;;
75358;SDS011;64046;51.978;5.934;2023-08-31T11:53:19;2.63;;;1.20;;
75358;SDS011;64046;51.978;5.934;2023-08-31T11:55:53;5.95;;;1.38;;
75358;SDS011;64046;51.978;5.934;2023-08-31T11:58:22;4.63;;;1.40;;
75358;SDS011;64046;51.978;5.934;2023-08-31T12:00:54;7.50;;;1.40;;
75358;SDS011;64046;51.978;5.934;2023-08-31T12:03:27;3.72;;;1.05;;
75358;SDS011;64046;51.978;5.934;2023-08-31T12:06:03;3.95;;;1.10;;
75358;SDS011;64046;51.978;5.934;2023-08-31T12:08:33;4.15;;;1.85;;
75358;SDS011;64046;51.978;5.934;2023-08-31T12:11:07;4.93;;;1.30;;
75358;SDS011;64046;51.978;5.934;2023-08-31T12:13:42;4.40;;;1.42;;
75358;SDS011;64046;51.978;5.934;2023-08-31T12:16:12;3.13;;;1.40;;
75358;SDS011;64046;51.978;5.934;2023-08-31T12:18:45;2.40;;;1.00;;
75358;SDS011;64046;51.978;5.934;2023-08-31T12:21:17;2.60;;;1.13;;
75358;SDS011;64046;51.978;5.934;2023-08-31T12:23:51;4.40;;;1.50;;
75358;SDS011;64046;51.978;5.934;2023-08-31T12:26:25;2.55;;;1.42;;
75358;SDS011;64046;51.978;5.934;2023-08-31T12:28:58;4.40;;;1.05;;
75358;SDS011;64046;51.978;5.934;2023-08-31T12:31:28;3.80;;;1.30;;
75358;SDS011;64046;51.978;5.934;2023-08-31T12:33:59;3.55;;;1.23;;
75358;SDS011;64046;51.978;5.934;2023-08-31T12:36:34;2.75;;;1.17;;
75358;SDS011;64046;51.978;5.934;2023-08-31T12:39:06;6.68;;;1.50;;
75358;SDS011;64046;51.978;5.934;2023-08-31T12:41:38;3.30;;;1.10;;
75358;SDS011;64046;51.978;5.934;2023-08-31T12:44:10;4.63;;;1.90;;
75358;SDS011;64046;51.978;5.934;2023-08-31T12:46:39;4.68;;;1.40;;
75358;SDS011;64046;51.978;5.934;2023-08-31T12:49:13;1.88;;;0.90;;
75358;SDS011;64046;51.978;5.934;2023-08-31T12:51:48;3.45;;;1.25;;
75358;SDS011;64046;51.978;5.934;2023-08-31T12:54:19;2.75;;;1.30;;
75358;SDS011;64046;51.978;5.934;2023-08-31T12:56:49;2.10;;;0.95;;
75358;SDS011;64046;51.978;5.934;2023-08-31T12:59:18;3.03;;;1.40;;
75358;SDS011;64046;51.978;5.934;2023-08-31T13:01:48;1.95;;;1.08;;
75358;SDS011;64046;51.978;5.934;2023-08-31T13:04:19;2.35;;;1.00;;
75358;SDS011;64046;51.978;5.934;2023-08-31T13:06:51;4.85;;;1.10;;
75358;SDS011;64046;51.978;5.934;2023-08-31T13:09:22;2.85;;;1.20;;
75358;SDS011;64046;51.978;5.934;2023-08-31T13:11:53;1.75;;;1.10;;
75358;SDS011;64046;51.978;5.934;2023-08-31T13:14:23;2.45;;;1.17;;
75358;SDS011;64046;51.978;5.934;2023-08-31T13:16:54;2.92;;;1.23;;
75358;SDS011;64046;51.978;5.934;2023-08-31T13:19:29;2.90;;;1.20;;
75358;SDS011;64046;51.978;5.934;2023-08-31T13:22:01;4.15;;;1.20;;
75358;SDS011;64046;51.978;5.934;2023-08-31T13:24:33;5.15;;;1.20;;
75358;SDS011;64046;51.978;5.934;2023-08-31T13:27:05;3.35;;;1.13;;
75358;SDS011;64046;51.978;5.934;2023-08-31T13:29:35;3.40;;;1.05;;
75358;SDS011;64046;51.978;5.934;2023-08-31T13:32:08;7.32;;;1.25;;
75358;SDS011;64046;51.978;5.934;2023-08-31T13:34:41;3.50;;;1.20;;
75358;SDS011;64046;51.978;5.934;2023-08-31T13:37:16;2.50;;;1.23;;
75358;SDS011;64046;51.978;5.934;2023-08-31T13:39:51;2.88;;;1.33;;
75358;SDS011;64046;51.978;5.934;2023-08-31T13:42:21;5.88;;;1.00;;
75358;SDS011;64046;51.978;5.934;2023-08-31T13:44:52;2.72;;;1.00;;
75358;SDS011;64046;51.978;5.934;2023-08-31T13:47:25;2.47;;;1.13;;
75358;SDS011;64046;51.978;5.934;2023-08-31T13:50:01;2.40;;;1.02;;
75358;SDS011;64046;51.978;5.934;2023-08-31T13:52:33;3.38;;;1.13;;
75358;SDS011;64046;51.978;5.934;2023-08-31T13:55:03;2.42;;;1.15;;
75358;SDS011;64046;51.978;5.934;2023-08-31T13:57:35;4.55;;;1.38;;
75358;SDS011;64046;51.978;5.934;2023-08-31T14:00:06;3.47;;;1.60;;
75358;SDS011;64046;51.978;5.934;2023-08-31T14:02:39;3.50;;;1.63;;
75358;SDS011;64046;51.978;5.934;2023-08-31T14:05:10;4.65;;;1.20;;
75358;SDS011;64046;51.978;5.934;2023-08-31T14:07:43;3.65;;;1.25;;
75358;SDS011;64046;51.978;5.934;2023-08-31T14:10:12;2.83;;;1.80;;
75358;SDS011;64046;51.978;5.934;2023-08-31T14:12:42;7.20;;;2.17;;
75358;SDS011;64046;51.978;5.934;2023-08-31T14:15:16;5.13;;;1.30;;
75358;SDS011;64046;51.978;5.934;2023-08-31T14:17:47;4.05;;;1.33;;
75358;SDS011;64046;51.978;5.934;2023-08-31T14:20:21;3.28;;;1.50;;
75358;SDS011;64046;51.978;5.934;2023-08-31T14:22:54;5.15;;;1.60;;
75358;SDS011;64046;51.978;5.934;2023-08-31T14:25:27;2.95;;;1.30;;
75358;SDS011;64046;51.978;5.934;2023-08-31T14:27:58;3.90;;;2.17;;
75358;SDS011;64046;51.978;5.934;2023-08-31T14:30:30;7.35;;;1.77;;
75358;SDS011;64046;51.978;5.934;2023-08-31T14:33:00;4.95;;;1.80;;
75358;SDS011;64046;51.978;5.934;2023-08-31T14:35:29;2.63;;;1.55;;
75358;SDS011;64046;51.978;5.934;2023-08-31T14:38:09;3.42;;;1.45;;
75358;SDS011;64046;51.978;5.934;2023-08-31T14:40:39;2.70;;;1.10;;
75358;SDS011;64046;51.978;5.934;2023-08-31T14:43:11;3.25;;;1.30;;
75358;SDS011;64046;51.978;5.934;2023-08-31T14:45:41;4.63;;;1.30;;
75358;SDS011;64046;51.978;5.934;2023-08-31T14:48:12;3.60;;;1.33;;
75358;SDS011;64046;51.978;5.934;2023-08-31T14:50:49;5.32;;;1.55;;
75358;SDS011;64046;51.978;5.934;2023-08-31T14:53:23;3.22;;;1.60;;
75358;SDS011;64046;51.978;5.934;2023-08-31T14:55:54;2.58;;;1.08;;
75358;SDS011;64046;51.978;5.934;2023-08-31T14:58:23;2.03;;;1.10;;
75358;SDS011;64046;51.978;5.934;2023-08-31T15:00:55;4.05;;;1.25;;
75358;SDS011;64046;51.978;5.934;2023-08-31T15:03:26;4.28;;;1.75;;
75358;SDS011;64046;51.978;5.934;2023-08-31T15:05:56;4.60;;;1.52;;
75358;SDS011;64046;51.978;5.934;2023-08-31T15:08:37;2.88;;;1.30;;
75358;SDS011;64046;51.978;5.934;2023-08-31T15:11:08;3.08;;;1.10;;
75358;SDS011;64046;51.978;5.934;2023-08-31T15:13:38;3.60;;;1.20;;
75358;SDS011;64046;51.978;5.934;2023-08-31T15:16:10;6.13;;;1.30;;